createdAt,value
2022-07-25T00:01:54.359Z,20.10
2022-07-25T00:04:21.916Z,19.90
2022-07-25T00:06:49.377Z,19.90
2022-07-25T00:09:16.521Z,20.10
2022-07-25T00:11:43.682Z,20.40
2022-07-25T00:14:10.774Z,20.60
2022-07-25T00:16:37.834Z,20.70
2022-07-25T00:19:04.840Z,20.80
2022-07-25T00:21:32.640Z,20.80
2022-07-25T00:23:59.605Z,20.60
2022-07-25T00:26:26.516Z,20.40
2022-07-25T00:28:53.567Z,20.10
2022-07-25T00:31:20.659Z,20.00
2022-07-25T00:33:47.721Z,19.80
2022-07-25T00:36:14.633Z,19.70
2022-07-25T00:38:41.693Z,19.60
2022-07-25T00:41:08.677Z,19.50
2022-07-25T00:43:35.680Z,19.40
2022-07-25T00:46:02.788Z,19.30
2022-07-25T00:48:31.205Z,19.30
2022-07-25T00:50:59.243Z,19.30
2022-07-25T00:53:26.657Z,19.40
2022-07-25T00:55:54.885Z,19.50
2022-07-25T00:58:21.895Z,19.40
2022-07-25T01:00:48.963Z,19.30
2022-07-25T01:03:17.003Z,19.20
2022-07-25T01:05:44.305Z,19.10
2022-07-25T01:08:12.362Z,19.10
2022-07-25T01:10:39.887Z,19.10
2022-07-25T01:13:07.470Z,19.10
2022-07-25T01:15:34.817Z,19.10
2022-07-25T01:18:02.046Z,19.10
2022-07-25T01:20:31.842Z,19.00
2022-07-25T01:23:00.314Z,19.00
2022-07-25T01:25:28.694Z,19.00
2022-07-25T01:27:56.290Z,19.00
2022-07-25T01:30:25.752Z,19.00
2022-07-25T01:32:53.581Z,19.00
2022-07-25T01:35:21.114Z,19.00
2022-07-25T01:37:48.321Z,19.00
2022-07-25T01:40:15.506Z,18.90
2022-07-25T01:42:43.864Z,18.80
2022-07-25T01:45:13.598Z,18.80
2022-07-25T01:47:41.223Z,18.70
2022-07-25T01:50:09.939Z,18.70
2022-07-25T01:52:39.710Z,18.70
2022-07-25T01:55:08.018Z,18.60
2022-07-25T01:57:36.154Z,18.70
2022-07-25T02:00:10.884Z,18.90
2022-07-25T02:02:37.827Z,19.30
2022-07-25T02:05:06.997Z,19.80
2022-07-25T02:07:34.183Z,20.10
2022-07-25T02:10:01.142Z,20.20
2022-07-25T02:12:28.326Z,20.30
2022-07-25T02:14:55.311Z,20.40
2022-07-25T02:17:22.243Z,20.50
2022-07-25T02:19:49.366Z,20.60
2022-07-25T02:22:16.302Z,20.60
2022-07-25T02:24:43.565Z,20.50
2022-07-25T02:27:10.555Z,20.50
2022-07-25T02:29:37.604Z,20.50
2022-07-25T02:32:05.391Z,20.40
2022-07-25T02:34:32.351Z,20.30
2022-07-25T02:36:59.232Z,20.20
2022-07-25T02:39:26.127Z,20.20
2022-07-25T02:41:53.104Z,20.20
2022-07-25T02:44:20.027Z,20.10
2022-07-25T02:46:46.983Z,20.10
2022-07-25T02:49:14.131Z,20.10
2022-07-25T02:51:41.148Z,20.10
2022-07-25T02:54:08.024Z,20.00
2022-07-25T02:56:34.993Z,19.90
2022-07-25T02:59:01.947Z,19.90
2022-07-25T03:01:29.105Z,19.80
2022-07-25T03:03:56.327Z,19.80
2022-07-25T03:06:23.347Z,19.70
2022-07-25T03:08:50.304Z,19.70
2022-07-25T03:11:17.600Z,19.50
2022-07-25T03:13:44.513Z,19.30
2022-07-25T03:16:11.483Z,19.10
2022-07-25T03:18:38.507Z,18.90
2022-07-25T03:21:06.065Z,18.80
2022-07-25T03:23:33.482Z,18.60
2022-07-25T03:26:00.340Z,18.40
2022-07-25T03:28:27.287Z,18.40
2022-07-25T03:30:54.528Z,18.40
2022-07-25T03:33:21.629Z,18.30
2022-07-25T03:35:48.676Z,18.30
2022-07-25T03:38:15.640Z,18.20
2022-07-25T03:40:42.900Z,18.20
2022-07-25T03:43:10.196Z,18.10
2022-07-25T03:45:37.234Z,17.90
2022-07-25T03:48:04.844Z,17.80
2022-07-25T03:50:31.802Z,17.70
2022-07-25T03:52:59.069Z,17.70
2022-07-25T03:55:27.153Z,17.70
2022-07-25T03:57:54.053Z,17.60
2022-07-25T04:00:21.285Z,17.60
2022-07-25T04:02:48.251Z,17.60
2022-07-25T04:05:15.256Z,17.70
2022-07-25T04:07:42.132Z,17.60
2022-07-25T04:10:10.207Z,17.60
2022-07-25T04:12:37.420Z,17.60
2022-07-25T04:15:05.335Z,17.70
2022-07-25T04:17:32.184Z,17.70
2022-07-25T04:19:59.746Z,17.80
2022-07-25T04:22:26.920Z,17.90
2022-07-25T04:24:53.801Z,18.10
2022-07-25T04:27:20.714Z,18.20
2022-07-25T04:29:47.720Z,18.30
2022-07-25T04:32:15.029Z,18.30
2022-07-25T04:34:43.582Z,18.30
2022-07-25T04:37:10.617Z,18.30
2022-07-25T04:39:37.704Z,18.30
2022-07-25T04:42:05.065Z,18.30
2022-07-25T04:44:31.937Z,18.50
2022-07-25T04:46:58.888Z,18.60
2022-07-25T04:49:25.850Z,18.80
2022-07-25T04:51:52.777Z,19.00
2022-07-25T04:54:19.750Z,19.10
2022-07-25T04:56:46.657Z,19.30
2022-07-25T04:59:13.601Z,19.50
2022-07-25T05:01:40.500Z,19.70
2022-07-25T05:04:07.778Z,19.60
2022-07-25T05:06:34.958Z,19.70
2022-07-25T05:09:01.962Z,19.70
2022-07-25T05:11:29.003Z,19.70
2022-07-25T05:13:56.394Z,20.00
2022-07-25T05:16:23.334Z,20.30
2022-07-25T05:18:50.278Z,20.60
2022-07-25T05:21:17.202Z,20.80
2022-07-25T05:23:44.164Z,21.20
2022-07-25T05:26:11.066Z,21.60
2022-07-25T05:28:38.051Z,22.00
2022-07-25T05:31:05.168Z,22.20
2022-07-25T05:33:33.450Z,22.40
2022-07-25T05:36:01.142Z,22.60
2022-07-25T05:38:28.050Z,22.80
2022-07-25T05:40:55.018Z,23.00
2022-07-25T05:43:21.994Z,23.20
2022-07-25T05:45:48.953Z,23.50
2022-07-25T05:48:15.888Z,23.80
2022-07-25T05:50:43.006Z,24.00
2022-07-25T05:53:10.053Z,24.30
2022-07-25T05:55:40.705Z,24.40
2022-07-25T05:58:09.381Z,24.60
2022-07-25T06:00:37.558Z,24.70
2022-07-25T06:03:05.191Z,24.90
2022-07-25T06:05:32.476Z,25.00
2022-07-25T06:07:59.473Z,25.10
2022-07-25T06:10:26.376Z,25.30
2022-07-25T06:12:53.302Z,25.40
2022-07-25T06:15:22.990Z,25.50
2022-07-25T06:17:54.539Z,25.60
2022-07-25T06:20:21.852Z,25.60
2022-07-25T06:22:48.842Z,25.80
2022-07-25T06:25:16.050Z,25.90
2022-07-25T06:27:43.199Z,26.20
2022-07-25T06:30:19.992Z,26.20
2022-07-25T06:32:50.836Z,26.30
2022-07-25T06:35:18.895Z,26.50
2022-07-25T06:37:46.400Z,26.60
2022-07-25T06:40:14.406Z,26.60
2022-07-25T06:42:46.331Z,26.70
2022-07-25T06:45:15.368Z,26.90
2022-07-25T06:47:44.453Z,27.10
2022-07-25T06:50:18.438Z,27.10
2022-07-25T06:52:48.842Z,27.00
2022-07-25T06:55:16.572Z,27.10
2022-07-25T06:57:44.063Z,27.20
2022-07-25T07:00:14.159Z,27.40
2022-07-25T07:03:01.193Z,27.40
2022-07-25T07:05:34.163Z,27.50
2022-07-25T07:08:01.864Z,27.60
2022-07-25T07:10:31.001Z,27.70
2022-07-25T07:13:11.767Z,27.80
2022-07-25T07:15:44.798Z,28.00
2022-07-25T07:18:11.720Z,28.10
2022-07-25T07:20:38.919Z,28.30
2022-07-25T07:23:05.897Z,28.50
2022-07-25T07:25:34.218Z,28.50
2022-07-25T07:28:01.318Z,28.60
2022-07-25T07:30:58.320Z,28.70
2022-07-25T07:33:15.352Z,28.80
2022-07-25T07:35:45.204Z,29.30
2022-07-25T07:38:12.205Z,29.50
2022-07-25T07:40:39.164Z,29.70
2022-07-25T07:43:06.327Z,29.90
2022-07-25T07:45:34.124Z,30.10
2022-07-25T07:48:01.189Z,30.10
2022-07-25T07:50:28.800Z,30.30
2022-07-25T07:52:58.442Z,30.50
2022-07-25T07:55:45.458Z,30.50
2022-07-25T07:58:16.610Z,30.70
2022-07-25T08:04:06.007Z,31.40
2022-07-25T08:06:32.952Z,31.40
2022-07-25T08:08:59.942Z,31.30
2022-07-25T08:11:26.935Z,31.50
2022-07-25T08:13:53.957Z,31.50
2022-07-25T08:16:21.019Z,31.50
2022-07-25T08:18:47.956Z,31.70
2022-07-25T08:21:14.856Z,31.80
2022-07-25T08:23:41.981Z,32.10
2022-07-25T08:26:08.999Z,32.20
2022-07-25T08:28:36.021Z,32.40
2022-07-25T08:31:03.082Z,32.70
2022-07-25T08:33:30.105Z,32.90
2022-07-25T08:35:58.694Z,33.20
2022-07-25T08:38:29.266Z,33.30
2022-07-25T08:40:58.210Z,33.30
2022-07-25T08:43:25.148Z,33.40
2022-07-25T08:45:55.278Z,33.70
2022-07-25T08:48:26.926Z,33.80
2022-07-25T08:50:58.674Z,33.80
2022-07-25T08:53:35.147Z,33.80
2022-07-25T08:56:13.746Z,34.00
2022-07-25T08:58:43.801Z,34.30
2022-07-25T09:01:14.440Z,34.00
2022-07-25T09:03:43.930Z,34.40
2022-07-25T09:06:23.057Z,34.60
2022-07-25T09:09:00.438Z,34.60
2022-07-25T09:11:34.433Z,34.70
2022-07-25T09:14:14.894Z,34.90
2022-07-25T09:16:45.303Z,35.20
2022-07-25T09:19:22.199Z,35.00
2022-07-25T09:22:21.835Z,35.50
2022-07-25T09:24:49.202Z,35.90
2022-07-25T09:27:18.112Z,36.20
2022-07-25T09:29:45.636Z,36.70
2022-07-25T09:32:22.927Z,37.20
2022-07-25T09:34:51.196Z,37.50
2022-07-25T09:37:27.051Z,38.00
2022-07-25T09:39:54.207Z,38.00
2022-07-25T09:42:39.368Z,38.00
2022-07-25T09:45:14.916Z,38.10
2022-07-25T09:48:04.915Z,38.30
2022-07-25T09:50:33.508Z,38.30
2022-07-25T09:53:02.481Z,38.40
2022-07-25T09:55:31.241Z,38.70
2022-07-25T09:57:58.625Z,38.40
2022-07-25T10:00:29.288Z,38.50
2022-07-25T10:03:05.379Z,38.50
2022-07-25T10:05:56.576Z,37.70
2022-07-25T10:08:26.244Z,37.90
2022-07-25T10:10:53.282Z,37.60
2022-07-25T10:13:39.085Z,38.30
2022-07-25T10:16:27.636Z,39.00
2022-07-25T10:18:58.887Z,39.50
2022-07-25T10:21:29.704Z,39.10
2022-07-25T10:24:06.718Z,38.90
2022-07-25T10:26:52.011Z,39.00
2022-07-25T10:29:18.914Z,39.80
2022-07-25T10:31:50.384Z,40.10
2022-07-25T10:34:33.537Z,40.30
2022-07-25T10:37:28.979Z,40.80
2022-07-25T10:39:56.480Z,40.90
2022-07-25T10:42:25.200Z,40.90
2022-07-25T10:44:59.357Z,40.80
2022-07-25T10:47:28.263Z,41.60
2022-07-25T10:53:00.583Z,43.50
2022-07-25T10:55:29.544Z,43.70
2022-07-25T10:58:21.627Z,43.10
2022-07-25T11:00:50.962Z,43.10
2022-07-25T11:03:18.720Z,42.90
2022-07-25T11:05:47.891Z,42.80
2022-07-25T11:08:22.933Z,43.00
2022-07-25T11:10:53.595Z,44.00
2022-07-25T11:13:21.037Z,44.90
2022-07-25T11:15:50.854Z,44.10
2022-07-25T11:18:18.496Z,44.10
2022-07-25T11:20:45.564Z,43.60
2022-07-25T11:23:21.269Z,43.90
2022-07-25T11:25:48.159Z,43.70
2022-07-25T11:28:15.093Z,44.30
2022-07-25T11:30:42.065Z,44.90
2022-07-25T11:33:09.177Z,44.70
2022-07-25T11:35:36.230Z,44.30
2022-07-25T11:38:04.072Z,44.40
2022-07-25T11:40:33.656Z,44.40
2022-07-25T11:43:01.605Z,44.90
2022-07-25T11:45:34.181Z,45.20
2022-07-25T11:48:08.358Z,45.50
2022-07-25T11:50:43.909Z,45.70
2022-07-25T11:53:16.331Z,45.60
2022-07-25T11:55:44.113Z,45.20
2022-07-25T11:58:13.939Z,44.10
2022-07-25T12:00:48.652Z,44.00
2022-07-25T12:03:21.156Z,44.30
2022-07-25T12:05:49.903Z,45.00
2022-07-25T12:08:22.249Z,44.80
2022-07-25T12:10:55.466Z,44.60
2022-07-25T12:13:29.624Z,43.80
2022-07-25T12:15:59.696Z,44.50
2022-07-25T12:18:28.378Z,44.30
2022-07-25T12:20:55.464Z,44.20
2022-07-25T12:23:22.535Z,44.30
2022-07-25T12:25:50.465Z,44.10
2022-07-25T12:28:17.445Z,44.20
2022-07-25T12:30:46.425Z,44.80
2022-07-25T12:33:14.810Z,44.30
2022-07-25T12:35:44.335Z,44.00
2022-07-25T12:38:11.531Z,44.10
2022-07-25T12:40:39.019Z,43.60
2022-07-25T12:43:06.757Z,42.70
2022-07-25T12:45:34.115Z,42.70
2022-07-25T12:48:01.090Z,43.30
2022-07-25T12:50:28.048Z,43.30
2022-07-25T12:52:55.044Z,43.40
2022-07-25T12:55:22.575Z,43.70
2022-07-25T12:57:49.974Z,43.60
2022-07-25T13:00:21.927Z,43.40
2022-07-25T13:02:53.138Z,44.70
2022-07-25T13:05:20.967Z,44.20
2022-07-25T13:07:49.459Z,41.80
2022-07-25T13:10:19.062Z,39.60
2022-07-25T13:12:47.266Z,40.40
2022-07-25T13:15:14.465Z,41.40
2022-07-25T13:17:41.868Z,42.10
2022-07-25T13:20:10.583Z,42.70
2022-07-25T13:22:37.945Z,43.60
2022-07-25T13:25:05.710Z,44.00
2022-07-25T13:27:32.801Z,44.50
2022-07-25T13:29:59.763Z,45.20
2022-07-25T13:32:28.297Z,45.10
2022-07-25T13:34:55.579Z,44.50
2022-07-25T13:37:22.875Z,43.90
2022-07-25T13:39:49.839Z,44.00
2022-07-25T13:42:16.996Z,44.60
2022-07-25T13:44:43.939Z,45.30
2022-07-25T13:47:11.272Z,45.50
2022-07-25T13:49:38.811Z,44.90
2022-07-25T13:52:06.577Z,44.20
2022-07-25T13:54:33.648Z,43.30
2022-07-25T13:57:03.344Z,42.70
2022-07-25T13:59:31.171Z,43.30
2022-07-25T14:01:58.232Z,41.70
2022-07-25T14:04:25.136Z,41.30
2022-07-25T14:06:52.344Z,40.10
2022-07-25T14:09:21.888Z,40.20
2022-07-25T14:11:48.991Z,40.90
2022-07-25T14:14:16.205Z,40.50
2022-07-25T14:16:43.434Z,39.30
2022-07-25T14:19:10.609Z,38.30
2022-07-25T14:21:37.893Z,38.00
2022-07-25T14:24:05.456Z,40.10
2022-07-25T14:26:35.225Z,41.90
2022-07-25T14:29:05.804Z,43.20
2022-07-25T14:31:33.081Z,43.80
2022-07-25T14:34:00.039Z,43.10
2022-07-25T14:36:27.750Z,41.40
2022-07-25T14:38:54.823Z,40.60
2022-07-25T14:41:22.530Z,40.80
2022-07-25T14:43:52.100Z,40.90
2022-07-25T14:46:19.642Z,41.40
2022-07-25T14:48:46.673Z,41.90
2022-07-25T14:51:13.785Z,41.00
2022-07-25T14:53:40.710Z,41.50
2022-07-25T14:56:07.898Z,42.30
2022-07-25T14:58:35.510Z,40.80
2022-07-25T15:01:02.650Z,39.90
2022-07-25T15:03:29.678Z,40.50
2022-07-25T15:05:57.580Z,40.70
2022-07-25T15:08:25.047Z,40.70
2022-07-25T15:10:51.998Z,41.30
2022-07-25T15:13:34.690Z,41.30
2022-07-25T15:16:04.933Z,41.40
2022-07-25T15:18:32.199Z,41.80
2022-07-25T15:20:59.263Z,41.40
2022-07-25T15:23:29.686Z,40.90
2022-07-25T15:26:02.446Z,41.20
2022-07-25T15:28:33.960Z,41.40
2022-07-25T15:31:01.413Z,41.70
2022-07-25T15:33:28.552Z,42.10
2022-07-25T15:35:55.764Z,42.20
2022-07-25T15:38:23.525Z,42.20
2022-07-25T15:40:51.261Z,42.00
2022-07-25T15:43:18.414Z,40.50
2022-07-25T15:45:47.278Z,39.40
2022-07-25T15:48:17.269Z,39.80
2022-07-25T15:50:49.441Z,40.70
2022-07-25T15:53:16.991Z,41.00
2022-07-25T15:55:44.568Z,40.60
2022-07-25T15:58:12.303Z,39.40
2022-07-25T16:00:41.543Z,38.20
2022-07-25T16:03:09.904Z,37.30
2022-07-25T16:05:39.495Z,36.60
2022-07-25T16:08:09.699Z,35.90
2022-07-25T16:10:37.801Z,34.70
2022-07-25T16:13:05.598Z,34.10
2022-07-25T16:15:32.656Z,33.50
2022-07-25T16:18:02.639Z,33.20
2022-07-25T16:20:31.981Z,33.00
2022-07-25T16:23:00.677Z,32.80
2022-07-25T16:25:30.217Z,32.60
2022-07-25T16:27:58.785Z,32.50
2022-07-25T16:30:27.946Z,32.30
2022-07-25T16:32:55.048Z,32.10
2022-07-25T16:35:22.363Z,31.90
2022-07-25T16:37:49.379Z,31.80
2022-07-25T16:40:16.884Z,31.70
2022-07-25T16:42:43.959Z,31.60
2022-07-25T16:45:11.500Z,31.40
2022-07-25T16:47:40.813Z,31.40
2022-07-25T16:50:08.444Z,31.30
2022-07-25T16:52:35.685Z,31.20
2022-07-25T16:55:02.881Z,31.10
2022-07-25T16:57:31.670Z,31.00
2022-07-25T17:00:00.626Z,30.90
2022-07-25T17:02:29.712Z,30.80
2022-07-25T17:04:58.450Z,30.60
2022-07-25T17:07:26.491Z,30.10
2022-07-25T17:09:53.772Z,29.90
2022-07-25T17:12:21.249Z,30.00
2022-07-25T17:14:48.588Z,30.10
2022-07-25T17:17:15.671Z,30.00
2022-07-25T17:19:42.864Z,29.80
2022-07-25T17:22:10.689Z,29.70
2022-07-25T17:24:39.541Z,30.00
2022-07-25T17:27:08.925Z,30.50
2022-07-25T17:29:37.277Z,31.00
2022-07-25T17:32:06.796Z,31.70
2022-07-25T17:34:34.230Z,32.30
2022-07-25T17:37:04.058Z,32.80
2022-07-25T17:39:33.860Z,33.40
2022-07-25T17:42:01.944Z,33.80
2022-07-25T17:44:28.897Z,34.10
2022-07-25T17:46:56.117Z,34.10
2022-07-25T17:49:23.153Z,33.80
2022-07-25T17:51:50.213Z,33.50
2022-07-25T17:54:17.695Z,33.10
2022-07-25T17:56:45.426Z,32.80
2022-07-25T17:59:13.553Z,32.40
2022-07-25T18:01:40.882Z,32.20
2022-07-25T18:04:08.843Z,32.00
2022-07-25T18:06:36.534Z,32.00
2022-07-25T18:09:04.478Z,32.00
2022-07-25T18:11:31.441Z,31.90
2022-07-25T18:13:59.434Z,31.80
2022-07-25T18:16:27.102Z,31.80
2022-07-25T18:18:54.210Z,31.70
2022-07-25T18:21:21.129Z,31.70
2022-07-25T18:23:48.125Z,31.50
2022-07-25T18:26:15.402Z,31.40
2022-07-25T18:28:42.487Z,31.20
2022-07-25T18:31:10.256Z,30.90
2022-07-25T18:33:37.592Z,30.70
2022-07-25T18:36:07.759Z,30.40
2022-07-25T18:38:36.010Z,30.10
2022-07-25T18:41:27.655Z,29.80
2022-07-25T18:43:52.685Z,29.60
2022-07-25T18:46:20.345Z,29.40
2022-07-25T18:48:47.840Z,29.10
2022-07-25T18:51:15.040Z,29.00
2022-07-25T18:53:47.367Z,28.80
2022-07-25T18:56:16.737Z,28.70
2022-07-25T18:58:45.205Z,28.50
2022-07-25T19:01:12.769Z,28.40
2022-07-25T19:03:40.661Z,28.30
2022-07-25T19:06:10.145Z,28.20
2022-07-25T19:08:37.831Z,28.00
2022-07-25T19:11:06.038Z,28.10
2022-07-25T19:13:51.110Z,28.10
2022-07-25T19:16:19.890Z,28.00
2022-07-25T19:18:47.856Z,27.70
2022-07-25T19:21:15.303Z,27.40
2022-07-25T19:23:46.951Z,27.00
2022-07-25T19:26:17.883Z,26.80
2022-07-25T19:28:48.400Z,26.50
2022-07-25T19:31:16.235Z,26.20
2022-07-25T19:33:45.464Z,26.10
2022-07-25T19:36:14.078Z,25.90
2022-07-25T19:38:41.049Z,25.80
2022-07-25T19:41:08.960Z,25.70
2022-07-25T19:43:35.884Z,25.70
2022-07-25T19:46:02.873Z,25.70
2022-07-25T19:48:29.970Z,25.70
2022-07-25T19:50:57.092Z,25.60
2022-07-25T19:53:28.198Z,25.50
2022-07-25T19:55:59.168Z,25.10
2022-07-25T19:58:26.325Z,23.80
2022-07-25T20:00:53.399Z,22.10
2022-07-25T20:03:23.447Z,21.00
2022-07-25T20:05:51.022Z,20.60
2022-07-25T20:08:18.723Z,20.30
2022-07-25T20:10:45.778Z,20.20
2022-07-25T20:13:12.902Z,20.10
2022-07-25T20:15:39.821Z,20.10
2022-07-25T20:18:06.729Z,19.90
2022-07-25T20:20:33.751Z,20.00
2022-07-25T20:23:00.750Z,20.00
2022-07-25T20:25:27.863Z,20.10
2022-07-25T20:27:54.888Z,20.10
2022-07-25T20:30:21.997Z,20.20
2022-07-25T20:32:49.209Z,20.40
2022-07-25T20:35:16.117Z,20.60
2022-07-25T20:37:43.029Z,20.70
2022-07-25T20:40:11.888Z,20.60
2022-07-25T20:42:38.965Z,20.50
2022-07-25T20:45:07.785Z,20.50
2022-07-25T20:47:34.977Z,20.40
2022-07-25T20:50:02.394Z,20.50
2022-07-25T20:52:30.178Z,20.50
2022-07-25T20:54:57.210Z,20.60
2022-07-25T20:57:24.270Z,20.60
2022-07-25T20:59:51.241Z,20.60
2022-07-25T21:02:18.369Z,20.60
2022-07-25T21:04:48.210Z,20.50
2022-07-25T21:07:17.525Z,20.40
2022-07-25T21:09:45.354Z,20.40
2022-07-25T21:12:12.376Z,20.20
2022-07-25T21:14:39.429Z,20.20
2022-07-25T21:17:06.571Z,20.10
2022-07-25T21:19:33.779Z,20.10
2022-07-25T21:22:02.753Z,20.00
2022-07-25T21:24:31.357Z,20.00
2022-07-25T21:26:58.756Z,20.10
2022-07-25T21:29:25.653Z,20.10
2022-07-25T21:31:52.644Z,20.30
2022-07-25T21:34:21.434Z,20.60
2022-07-25T21:36:48.406Z,20.90
2022-07-25T21:39:16.143Z,21.10
2022-07-25T21:41:44.718Z,21.20
2022-07-25T21:44:13.639Z,21.20
2022-07-25T21:46:40.530Z,21.20
2022-07-25T21:49:41.398Z,21.30
2022-07-25T21:52:13.863Z,21.30
2022-07-25T21:54:43.186Z,21.50
2022-07-25T21:57:13.388Z,21.80
2022-07-25T21:59:45.360Z,21.80
2022-07-25T22:02:13.030Z,21.80
2022-07-25T22:04:40.386Z,21.90
2022-07-25T22:07:07.317Z,21.80
2022-07-25T22:09:34.383Z,21.80
2022-07-25T22:12:01.626Z,21.80
2022-07-25T22:14:28.678Z,22.10
2022-07-25T22:16:55.739Z,22.10
2022-07-25T22:19:23.419Z,22.10
2022-07-25T22:21:51.358Z,21.90
2022-07-25T22:24:18.393Z,21.90
2022-07-25T22:26:45.539Z,21.70
2022-07-25T22:29:12.715Z,21.70
2022-07-25T22:31:40.005Z,21.80
2022-07-25T22:34:08.639Z,22.00
2022-07-25T22:36:35.661Z,22.10
2022-07-25T22:39:02.655Z,22.00
2022-07-25T22:41:29.674Z,22.00
2022-07-25T22:43:59.574Z,22.20
2022-07-25T22:46:31.118Z,22.30
2022-07-25T22:48:59.392Z,22.30
2022-07-25T22:51:27.796Z,22.30
2022-07-25T22:53:59.291Z,22.30
2022-07-25T22:56:27.800Z,22.30
2022-07-25T22:58:55.542Z,22.20
2022-07-25T23:01:23.488Z,22.20
2022-07-25T23:03:51.202Z,22.10
2022-07-25T23:06:20.744Z,22.10
2022-07-25T23:08:49.162Z,22.10
2022-07-25T23:11:16.924Z,22.10
2022-07-25T23:13:43.939Z,22.10
2022-07-25T23:16:11.229Z,22.00
2022-07-25T23:18:39.540Z,22.00
2022-07-25T23:21:06.995Z,21.90
2022-07-25T23:23:34.351Z,21.90
2022-07-25T23:26:02.775Z,21.80
2022-07-25T23:28:29.704Z,21.80
2022-07-25T23:30:56.630Z,21.70
2022-07-25T23:33:25.175Z,21.70
2022-07-25T23:35:54.348Z,21.70
2022-07-25T23:38:22.476Z,21.70
2022-07-25T23:40:50.338Z,21.60
2022-07-25T23:43:26.774Z,21.60
2022-07-25T23:46:05.098Z,21.60
2022-07-25T23:48:33.869Z,21.60
2022-07-25T23:51:01.040Z,21.50
2022-07-25T23:53:28.333Z,21.50
2022-07-25T23:55:55.277Z,21.50
2022-07-25T23:58:22.303Z,21.40
